createdAt,value
2022-09-25T00:00:30.315Z,95179
2022-09-25T00:01:40.027Z,95179
2022-09-25T00:02:48.722Z,95180
2022-09-25T00:03:58.399Z,95177
2022-09-25T00:05:08.176Z,95177
2022-09-25T00:06:16.809Z,95179
2022-09-25T00:07:25.467Z,95183
2022-09-25T00:08:34.136Z,95177
2022-09-25T00:09:42.835Z,95177
2022-09-25T00:10:52.491Z,95174
2022-09-25T00:12:00.135Z,95175
2022-09-25T00:13:08.837Z,95175
2022-09-25T00:14:18.492Z,95171
2022-09-25T00:15:27.313Z,95172
2022-09-25T00:16:37.083Z,95170
2022-09-25T00:17:45.730Z,95169
2022-09-25T00:18:54.381Z,95169
2022-09-25T00:20:04.061Z,95171
2022-09-25T00:21:13.725Z,95169
2022-09-25T00:22:22.379Z,95166
2022-09-25T00:23:32.073Z,95165
2022-09-25T00:24:40.738Z,95163
2022-09-25T00:25:50.467Z,95158
2022-09-25T00:26:59.147Z,95162
2022-09-25T00:28:07.798Z,95163
2022-09-25T00:29:18.465Z,95153
2022-09-25T00:30:28.226Z,95151
2022-09-25T00:31:37.774Z,95151
2022-09-25T00:32:47.503Z,95148
2022-09-25T00:33:57.212Z,95150
2022-09-25T00:35:05.886Z,95151
2022-09-25T00:36:14.604Z,95148
2022-09-25T00:37:24.304Z,95148
2022-09-25T00:38:34.000Z,95143
2022-09-25T00:39:43.672Z,95146
2022-09-25T00:40:52.380Z,95150
2022-09-25T00:42:02.045Z,95140
2022-09-25T00:43:10.709Z,95145
2022-09-25T00:44:19.407Z,95144
2022-09-25T00:45:28.086Z,95143
2022-09-25T00:46:37.792Z,95149
2022-09-25T00:47:47.373Z,95145
2022-09-25T00:48:57.037Z,95147
2022-09-25T00:50:04.716Z,95146
2022-09-25T00:51:13.373Z,95148
2022-09-25T00:52:22.035Z,95144
2022-09-25T00:53:30.700Z,95145
2022-09-25T00:54:40.357Z,95148
2022-09-25T00:55:49.068Z,95148
2022-09-25T00:56:57.750Z,95146
2022-09-25T00:58:07.406Z,95144
2022-09-25T00:59:16.067Z,95143
2022-09-25T01:00:25.791Z,95145
2022-09-25T01:01:35.729Z,95141
2022-09-25T01:02:44.196Z,95145
2022-09-25T01:03:53.822Z,95143
2022-09-25T01:05:01.477Z,95146
2022-09-25T01:06:11.181Z,95141
2022-09-25T01:07:20.868Z,95143
2022-09-25T01:08:30.577Z,95141
2022-09-25T01:09:39.242Z,95147
2022-09-25T01:10:47.944Z,95143
2022-09-25T01:11:56.590Z,95139
2022-09-25T01:13:06.295Z,95142
2022-09-25T01:14:14.968Z,95139
2022-09-25T01:15:23.662Z,95142
2022-09-25T01:16:33.374Z,95142
2022-09-25T01:17:41.033Z,95144
2022-09-25T01:18:49.814Z,95142
2022-09-25T01:19:58.486Z,95141
2022-09-25T01:21:07.144Z,95135
2022-09-25T01:22:16.868Z,95138
2022-09-25T01:23:24.552Z,95136
2022-09-25T01:24:33.240Z,95134
2022-09-25T01:25:43.905Z,95131
2022-09-25T01:26:52.583Z,95131
2022-09-25T01:28:00.264Z,95131
2022-09-25T01:29:09.907Z,95124
2022-09-25T01:30:19.597Z,95127
2022-09-25T01:31:29.251Z,95128
2022-09-25T01:32:37.929Z,95127
2022-09-25T01:33:46.626Z,95128
2022-09-25T01:34:56.276Z,95127
2022-09-25T01:36:03.972Z,95125
2022-09-25T01:37:13.698Z,95123
2022-09-25T01:38:22.360Z,95125
2022-09-25T01:39:32.041Z,95118
2022-09-25T01:40:41.810Z,95122
2022-09-25T01:41:49.397Z,95126
2022-09-25T01:42:59.058Z,95128
2022-09-25T01:44:08.735Z,95128
2022-09-25T01:45:18.400Z,95124
2022-09-25T01:46:27.093Z,95123
2022-09-25T01:47:35.767Z,95126
2022-09-25T01:48:45.434Z,95123
2022-09-25T01:49:55.375Z,95123
2022-09-25T01:51:04.962Z,95123
2022-09-25T01:52:13.621Z,95127
2022-09-25T01:53:23.356Z,95123
2022-09-25T01:54:31.049Z,95120
2022-09-25T01:55:40.761Z,95123
2022-09-25T01:56:49.421Z,95117
2022-09-25T01:57:58.102Z,95121
2022-09-25T01:59:07.778Z,95123
2022-09-25T02:00:16.484Z,95122
2022-09-25T02:01:25.228Z,95119
2022-09-25T02:02:34.909Z,95123
2022-09-25T02:03:42.593Z,95115
2022-09-25T02:04:51.308Z,95115
2022-09-25T02:06:00.122Z,95112
2022-09-25T02:07:09.673Z,95117
2022-09-25T02:08:19.345Z,95117
2022-09-25T02:09:29.026Z,95117
2022-09-25T02:10:37.698Z,95119
2022-09-25T02:11:47.374Z,95116
2022-09-25T02:12:55.018Z,95116
2022-09-25T02:14:03.764Z,95115
2022-09-25T02:15:12.379Z,95117
2022-09-25T02:16:21.094Z,95120
2022-09-25T02:17:30.762Z,95118
2022-09-25T02:18:40.442Z,95122
2022-09-25T02:19:49.118Z,95125
2022-09-25T02:20:58.783Z,95123
2022-09-25T02:22:06.560Z,95124
2022-09-25T02:23:15.251Z,95124
2022-09-25T02:24:24.920Z,95123
2022-09-25T02:25:33.603Z,95123
2022-09-25T02:26:43.272Z,95123
2022-09-25T02:27:50.960Z,95125
2022-09-25T02:29:00.602Z,95121
2022-09-25T02:30:10.313Z,95126
2022-09-25T02:31:18.040Z,95123
2022-09-25T02:32:26.632Z,95125
2022-09-25T02:33:36.352Z,95130
2022-09-25T02:34:45.026Z,95134
2022-09-25T02:35:53.702Z,95135
2022-09-25T02:37:01.361Z,95131
2022-09-25T02:38:10.101Z,95138
2022-09-25T02:39:19.748Z,95138
2022-09-25T02:40:28.444Z,95134
2022-09-25T02:41:38.122Z,95136
2022-09-25T02:42:46.834Z,95133
2022-09-25T02:43:55.482Z,95130
2022-09-25T02:45:04.226Z,95131
2022-09-25T02:46:13.932Z,95131
2022-09-25T02:47:21.575Z,95133
2022-09-25T02:48:30.296Z,95132
2022-09-25T02:49:38.961Z,95133
2022-09-25T02:50:48.664Z,95131
2022-09-25T02:51:58.360Z,95127
2022-09-25T02:53:08.018Z,95126
2022-09-25T02:54:16.807Z,95126
2022-09-25T02:55:26.367Z,95124
2022-09-25T02:56:35.081Z,95123
2022-09-25T02:57:44.768Z,95123
2022-09-25T02:58:53.429Z,95117
2022-09-25T03:00:02.109Z,95114
2022-09-25T03:01:11.787Z,95113
2022-09-25T03:02:19.520Z,95111
2022-09-25T03:03:28.129Z,95108
2022-09-25T03:04:37.824Z,95112
2022-09-25T03:05:46.492Z,95107
2022-09-25T03:06:56.208Z,95109
2022-09-25T03:08:05.919Z,95107
2022-09-25T03:09:15.599Z,95103
2022-09-25T03:10:25.315Z,95106
2022-09-25T03:11:33.952Z,95100
2022-09-25T03:12:42.646Z,95102
2022-09-25T03:13:52.367Z,95102
2022-09-25T03:15:01.004Z,95098
2022-09-25T03:16:09.705Z,95097
2022-09-25T03:17:18.354Z,95095
2022-09-25T03:18:27.006Z,95094
2022-09-25T03:19:36.707Z,95092
2022-09-25T03:20:45.359Z,95094
2022-09-25T03:21:55.049Z,95090
2022-09-25T03:23:04.704Z,95094
2022-09-25T03:24:13.460Z,95092
2022-09-25T03:25:22.195Z,95095
2022-09-25T03:26:30.921Z,95091
2022-09-25T03:27:39.626Z,95097
2022-09-25T03:28:49.275Z,95093
2022-09-25T03:29:56.973Z,95090
2022-09-25T03:31:05.691Z,95089
2022-09-25T03:32:15.341Z,95092
2022-09-25T03:33:24.004Z,95090
2022-09-25T03:34:32.692Z,95088
2022-09-25T03:35:42.369Z,95089
2022-09-25T03:36:51.060Z,95084
2022-09-25T03:38:00.728Z,95082
2022-09-25T03:39:08.473Z,95085
2022-09-25T03:40:17.199Z,95082
2022-09-25T03:41:26.910Z,95081
2022-09-25T03:42:35.614Z,95088
2022-09-25T03:43:44.255Z,95085
2022-09-25T03:44:53.951Z,95084
2022-09-25T03:46:03.695Z,95083
2022-09-25T03:47:13.323Z,95087
2022-09-25T03:48:21.094Z,95082
2022-09-25T03:49:29.782Z,95084
2022-09-25T03:50:39.481Z,95086
2022-09-25T03:51:48.141Z,95089
2022-09-25T03:52:56.851Z,95087
2022-09-25T03:54:05.566Z,95091
2022-09-25T03:55:14.233Z,95089
2022-09-25T03:56:22.891Z,95086
2022-09-25T03:57:30.573Z,95087
2022-09-25T03:58:39.262Z,95087
2022-09-25T03:59:48.958Z,95087
2022-09-25T04:00:57.766Z,95089
2022-09-25T04:02:07.426Z,95087
2022-09-25T04:03:16.002Z,95090
2022-09-25T04:04:25.677Z,95084
2022-09-25T04:05:35.401Z,95082
2022-09-25T04:06:44.083Z,95079
2022-09-25T04:07:52.768Z,95075
2022-09-25T04:09:02.479Z,95072
2022-09-25T04:10:11.164Z,95075
2022-09-25T04:11:20.859Z,95072
2022-09-25T04:12:29.532Z,95072
2022-09-25T04:13:39.204Z,95067
2022-09-25T04:14:48.887Z,95065
2022-09-25T04:15:57.634Z,95057
2022-09-25T04:17:06.280Z,95059
2022-09-25T04:18:15.945Z,95061
2022-09-25T04:19:23.622Z,95061
2022-09-25T04:20:32.300Z,95064
2022-09-25T04:21:40.976Z,95066
2022-09-25T04:22:49.686Z,95063
2022-09-25T04:23:59.350Z,95065
2022-09-25T04:25:07.008Z,95061
2022-09-25T04:26:15.677Z,95058
2022-09-25T04:27:25.368Z,95060
2022-09-25T04:28:33.098Z,95064
2022-09-25T04:29:41.780Z,95068
2022-09-25T04:30:50.479Z,95071
2022-09-25T04:31:59.156Z,95068
2022-09-25T04:33:08.776Z,95072
2022-09-25T04:34:16.487Z,95068
2022-09-25T04:35:25.167Z,95071
2022-09-25T04:36:34.845Z,95073
2022-09-25T04:37:42.534Z,95071
2022-09-25T04:38:51.212Z,95080
2022-09-25T04:40:00.942Z,95076
2022-09-25T04:41:09.612Z,95081
2022-09-25T04:42:18.314Z,95077
2022-09-25T04:43:28.018Z,95076
2022-09-25T04:44:35.673Z,95078
2022-09-25T04:45:44.390Z,95075
2022-09-25T04:46:54.276Z,95074
2022-09-25T04:48:03.695Z,95069
2022-09-25T04:49:13.361Z,95077
2022-09-25T04:50:22.024Z,95077
2022-09-25T04:51:30.706Z,95078
2022-09-25T04:52:40.369Z,95075
2022-09-25T04:53:49.056Z,95076
2022-09-25T04:54:56.796Z,95072
2022-09-25T04:56:05.473Z,95075
2022-09-25T04:57:23.431Z,95076
2022-09-25T04:58:25.815Z,95075
2022-09-25T04:59:33.479Z,95074
2022-09-25T05:00:42.174Z,95072
2022-09-25T05:01:52.020Z,95072
2022-09-25T05:02:59.765Z,95074
2022-09-25T05:04:09.335Z,95077
2022-09-25T05:05:19.006Z,95078
2022-09-25T05:06:27.662Z,95083
2022-09-25T05:07:37.353Z,95092
2022-09-25T05:08:46.220Z,95089
2022-09-25T05:09:54.865Z,95088
2022-09-25T05:11:04.572Z,95092
2022-09-25T05:12:12.260Z,95088
2022-09-25T05:13:21.917Z,95092
2022-09-25T05:14:30.600Z,95089
2022-09-25T05:15:39.259Z,95096
2022-09-25T05:16:48.991Z,95095
2022-09-25T05:17:57.648Z,95094
2022-09-25T05:19:06.325Z,95097
2022-09-25T05:20:15.995Z,95097
2022-09-25T05:21:23.684Z,95096
2022-09-25T05:22:33.372Z,95096
2022-09-25T05:23:43.074Z,95097
2022-09-25T05:24:55.282Z,95094
2022-09-25T05:26:02.818Z,95097
2022-09-25T05:27:11.092Z,95093
2022-09-25T05:28:19.784Z,95093
2022-09-25T05:29:29.450Z,95089
2022-09-25T05:30:39.295Z,95094
2022-09-25T05:31:48.204Z,95088
2022-09-25T05:32:56.861Z,95091
2022-09-25T05:34:06.580Z,95092
2022-09-25T05:35:16.239Z,95094
2022-09-25T05:36:24.889Z,95093
2022-09-25T05:37:33.593Z,95095
2022-09-25T05:38:43.307Z,95098
2022-09-25T05:39:51.012Z,95094
2022-09-25T05:40:59.703Z,95089
2022-09-25T05:42:09.460Z,95087
2022-09-25T05:43:19.213Z,95086
2022-09-25T05:44:28.987Z,95086
2022-09-25T05:45:36.681Z,95081
2022-09-25T05:46:45.363Z,95085
2022-09-25T05:47:55.021Z,95085
2022-09-25T05:49:03.754Z,95087
2022-09-25T05:50:12.442Z,95085
2022-09-25T05:51:21.240Z,95087
2022-09-25T05:52:29.822Z,95089
2022-09-25T05:53:39.557Z,95086
2022-09-25T05:54:47.381Z,95090
2022-09-25T05:55:56.069Z,95092
2022-09-25T05:57:05.802Z,95090
2022-09-25T05:58:13.450Z,95087
2022-09-25T05:59:22.120Z,95088
2022-09-25T06:00:30.813Z,95080
2022-09-25T06:01:40.495Z,95085
2022-09-25T06:02:50.189Z,95080
2022-09-25T06:03:57.806Z,95075
2022-09-25T06:05:07.469Z,95079
2022-09-25T06:06:17.167Z,95080
2022-09-25T06:07:27.849Z,95082
2022-09-25T06:08:37.548Z,95084
2022-09-25T06:09:46.222Z,95081
2022-09-25T06:10:54.895Z,95088
2022-09-25T06:12:03.588Z,95087
2022-09-25T06:13:11.261Z,95086
2022-09-25T06:14:20.977Z,95084
2022-09-25T06:15:30.660Z,95087
2022-09-25T06:16:39.378Z,95094
2022-09-25T06:17:48.096Z,95093
2022-09-25T06:18:56.749Z,95095
2022-09-25T06:20:05.435Z,95088
2022-09-25T06:21:16.097Z,95093
2022-09-25T06:22:24.771Z,95091
2022-09-25T06:23:34.488Z,95090
2022-09-25T06:24:44.168Z,95098
2022-09-25T06:25:51.827Z,95093
2022-09-25T06:27:02.487Z,95096
2022-09-25T06:28:12.211Z,95092
2022-09-25T06:29:21.030Z,95092
2022-09-25T06:30:30.698Z,95093
2022-09-25T06:31:38.455Z,95089
2022-09-25T06:32:48.069Z,95087
2022-09-25T06:33:57.750Z,95090
2022-09-25T06:35:06.561Z,95090
2022-09-25T06:36:15.239Z,95091
2022-09-25T06:37:23.925Z,95093
2022-09-25T06:38:33.603Z,95093
2022-09-25T06:39:43.273Z,95091
2022-09-25T06:40:53.005Z,95091
2022-09-25T06:42:03.600Z,95089
2022-09-25T06:43:13.274Z,95084
2022-09-25T06:44:21.968Z,95089
2022-09-25T06:45:30.618Z,95086
2022-09-25T06:46:40.404Z,95088
2022-09-25T06:47:49.060Z,95086
2022-09-25T06:48:57.725Z,95083
2022-09-25T06:50:07.388Z,95086
2022-09-25T06:51:17.198Z,95083
2022-09-25T06:52:25.882Z,95081
2022-09-25T06:53:34.584Z,95078
2022-09-25T06:54:44.566Z,95074
2022-09-25T06:55:54.033Z,95076
2022-09-25T06:57:02.683Z,95075
2022-09-25T06:58:12.502Z,95083
2022-09-25T06:59:22.205Z,95082
2022-09-25T07:00:29.854Z,95087
2022-09-25T07:01:38.608Z,95086
2022-09-25T07:02:47.295Z,95081
2022-09-25T07:03:55.903Z,95081
2022-09-25T07:05:05.564Z,95078
2022-09-25T07:06:13.255Z,95082
2022-09-25T07:07:21.900Z,95081
2022-09-25T07:08:31.609Z,95080
2022-09-25T07:09:39.348Z,95083
2022-09-25T07:10:49.026Z,95081
2022-09-25T07:11:57.767Z,95085
2022-09-25T07:13:06.449Z,95084
2022-09-25T07:14:17.111Z,95084
2022-09-25T07:15:25.797Z,95083
2022-09-25T07:16:35.550Z,95082
2022-09-25T07:17:45.238Z,95088
2022-09-25T07:18:53.902Z,95086
2022-09-25T07:20:03.592Z,95086
2022-09-25T07:21:13.284Z,95086
2022-09-25T07:22:21.968Z,95087
2022-09-25T07:23:31.680Z,95087
2022-09-25T07:24:39.354Z,95083
2022-09-25T07:25:49.091Z,95081
2022-09-25T07:26:59.030Z,95082
2022-09-25T07:28:08.737Z,95084
2022-09-25T07:29:17.390Z,95081
2022-09-25T07:30:26.123Z,95085
2022-09-25T07:31:34.874Z,95080
2022-09-25T07:32:44.527Z,95079
2022-09-25T07:33:53.213Z,95081
2022-09-25T07:35:02.867Z,95083
2022-09-25T07:36:12.532Z,95080
2022-09-25T07:37:20.210Z,95081
2022-09-25T07:38:28.924Z,95082
2022-09-25T07:39:37.604Z,95075
2022-09-25T07:40:46.342Z,95078
2022-09-25T07:41:55.951Z,95076
2022-09-25T07:43:03.625Z,95075
2022-09-25T07:44:31.503Z,95078
2022-09-25T07:45:23.984Z,95077
2022-09-25T07:46:31.747Z,95078
2022-09-25T07:47:41.356Z,95080
2022-09-25T07:48:50.011Z,95080
2022-09-25T07:49:58.682Z,95085
2022-09-25T07:51:08.352Z,95090
2022-09-25T07:52:18.030Z,95092
2022-09-25T07:53:26.658Z,95093
2022-09-25T07:54:36.355Z,95095
2022-09-25T07:55:45.034Z,95096
2022-09-25T07:56:54.705Z,95098
2022-09-25T07:58:04.398Z,95096
2022-09-25T07:59:14.058Z,95097
2022-09-25T08:00:22.807Z,95100
2022-09-25T08:01:32.671Z,95096
2022-09-25T08:02:41.251Z,95094
2022-09-25T08:03:50.875Z,95095
2022-09-25T08:04:59.571Z,95094
2022-09-25T08:06:08.242Z,95097
2022-09-25T08:07:17.945Z,95101
2022-09-25T08:08:26.614Z,95104
2022-09-25T08:09:36.301Z,95099
2022-09-25T08:10:45.050Z,95098
2022-09-25T08:11:53.721Z,95092
2022-09-25T08:13:03.420Z,95087
2022-09-25T08:14:12.115Z,95088
2022-09-25T08:15:21.802Z,95089
2022-09-25T08:16:31.526Z,95092
2022-09-25T08:17:40.192Z,95089
2022-09-25T08:18:49.953Z,95090
2022-09-25T08:19:57.687Z,95086
2022-09-25T08:21:06.341Z,95090
2022-09-25T08:22:16.020Z,95087
2022-09-25T08:23:24.693Z,95090
2022-09-25T08:24:33.379Z,95091
2022-09-25T08:25:43.039Z,95085
2022-09-25T08:26:51.708Z,95086
2022-09-25T08:28:01.368Z,95084
2022-09-25T08:29:10.040Z,95088
2022-09-25T08:30:18.764Z,95088
2022-09-25T08:31:28.525Z,95086
2022-09-25T08:32:36.237Z,95087
2022-09-25T08:33:44.838Z,95085
2022-09-25T08:34:54.533Z,95089
2022-09-25T08:36:03.240Z,95088
2022-09-25T08:37:12.906Z,95089
2022-09-25T08:38:22.603Z,95087
2022-09-25T08:39:31.271Z,95093
2022-09-25T08:40:45.779Z,95095
2022-09-25T08:41:50.764Z,95090
2022-09-25T08:42:59.405Z,95095
2022-09-25T08:44:09.080Z,95093
2022-09-25T08:45:21.346Z,95095
2022-09-25T08:46:26.404Z,95096
2022-09-25T08:47:36.070Z,95097
2022-09-25T08:48:43.895Z,95098
2022-09-25T08:49:52.443Z,95099
2022-09-25T08:51:01.098Z,95099
2022-09-25T08:52:10.774Z,95098
2022-09-25T08:54:28.181Z,95103
2022-09-25T08:55:36.855Z,95098
2022-09-25T08:56:46.552Z,95098
2022-09-25T08:57:54.228Z,95096
2022-09-25T08:59:03.953Z,95094
2022-09-25T09:00:12.610Z,95091
2022-09-25T09:01:22.354Z,95088
2022-09-25T09:02:32.018Z,95093
2022-09-25T09:03:40.724Z,95089
2022-09-25T09:04:49.554Z,95090
2022-09-25T09:05:59.283Z,95088
2022-09-25T09:07:26.183Z,95092
2022-09-25T09:08:19.058Z,95093
2022-09-25T09:09:27.776Z,95092
2022-09-25T09:10:36.459Z,95092
2022-09-25T09:11:46.173Z,95094
2022-09-25T09:12:54.831Z,95091
2022-09-25T09:14:04.669Z,95090
2022-09-25T09:15:14.284Z,95090
2022-09-25T09:16:22.980Z,95089
2022-09-25T09:17:33.537Z,95085
2022-09-25T09:18:46.683Z,95087
2022-09-25T09:20:00.832Z,95083
2022-09-25T09:21:13.186Z,95084
2022-09-25T09:22:21.937Z,95083
2022-09-25T09:23:31.734Z,95084
2022-09-25T09:24:41.398Z,95081
2022-09-25T09:25:49.077Z,95084
2022-09-25T09:26:58.776Z,95086
2022-09-25T09:28:07.460Z,95085
2022-09-25T09:29:17.121Z,95084
2022-09-25T09:30:26.808Z,95086
2022-09-25T09:31:35.486Z,95088
2022-09-25T09:32:44.131Z,95087
2022-09-25T09:33:53.829Z,95081
2022-09-25T09:35:06.119Z,95082
2022-09-25T09:36:12.211Z,95084
2022-09-25T09:37:21.843Z,95085
2022-09-25T09:38:30.510Z,95078
2022-09-25T09:39:40.204Z,95083
2022-09-25T09:40:48.972Z,95084
2022-09-25T09:41:58.505Z,95087
2022-09-25T09:43:08.316Z,95082
2022-09-25T09:44:15.965Z,95085
2022-09-25T09:45:24.793Z,95087
2022-09-25T09:46:34.519Z,95083
2022-09-25T09:47:43.147Z,95084
2022-09-25T09:48:52.865Z,95078
2022-09-25T09:50:01.519Z,95082
2022-09-25T09:51:10.233Z,95081
2022-09-25T09:52:20.025Z,95085
2022-09-25T09:53:27.696Z,95076
2022-09-25T09:54:36.369Z,95075
2022-09-25T09:55:46.093Z,95076
2022-09-25T09:56:54.817Z,95071
2022-09-25T09:58:04.495Z,95074
2022-09-25T09:59:13.305Z,95073
2022-09-25T10:00:21.986Z,95073
2022-09-25T10:01:47.202Z,95074
2022-09-25T10:02:42.509Z,95074
2022-09-25T10:03:51.093Z,95071
2022-09-25T10:04:58.782Z,95074
2022-09-25T10:06:07.445Z,95073
2022-09-25T10:07:17.108Z,95073
2022-09-25T10:08:24.961Z,95067
2022-09-25T10:09:34.589Z,95071
2022-09-25T10:10:44.289Z,95066
2022-09-25T10:11:52.950Z,95065
2022-09-25T10:13:05.584Z,95072
2022-09-25T10:14:11.375Z,95068
2022-09-25T10:15:20.076Z,95064
2022-09-25T10:16:29.755Z,95062
2022-09-25T10:17:38.421Z,95061
2022-09-25T10:18:47.079Z,95065
2022-09-25T10:19:56.765Z,95064
2022-09-25T10:21:06.460Z,95059
2022-09-25T10:22:16.965Z,95060
2022-09-25T10:23:25.840Z,95062
2022-09-25T10:24:34.543Z,95061
2022-09-25T10:25:44.312Z,95064
2022-09-25T10:26:53.962Z,95067
2022-09-25T10:28:03.678Z,95060
2022-09-25T10:29:13.333Z,95064
2022-09-25T10:30:21.013Z,95066
2022-09-25T10:31:29.728Z,95064
2022-09-25T10:32:38.354Z,95059
2022-09-25T10:33:47.011Z,95063
2022-09-25T10:34:56.699Z,95066
2022-09-25T10:36:05.407Z,95064
2022-09-25T10:37:14.085Z,95062
2022-09-25T10:38:22.772Z,95063
2022-09-25T10:39:43.920Z,95066
2022-09-25T10:40:42.155Z,95064
2022-09-25T10:41:51.854Z,95062
2022-09-25T10:42:59.552Z,95066
2022-09-25T10:44:09.328Z,95069
2022-09-25T10:45:18.916Z,95066
2022-09-25T10:46:26.600Z,95069
2022-09-25T10:47:36.275Z,95066
2022-09-25T10:48:46.122Z,95059
2022-09-25T10:49:54.788Z,95060
2022-09-25T10:51:04.457Z,95063
2022-09-25T10:52:13.144Z,95066
2022-09-25T10:53:21.793Z,95064
2022-09-25T10:54:31.635Z,95071
2022-09-25T10:55:41.410Z,95072
2022-09-25T10:56:50.067Z,95069
2022-09-25T10:57:59.754Z,95062
2022-09-25T10:59:08.501Z,95066
2022-09-25T11:00:18.208Z,95062
2022-09-25T11:01:26.998Z,95065
2022-09-25T11:02:35.707Z,95068
2022-09-25T11:03:45.449Z,95073
2022-09-25T11:04:54.125Z,95063
2022-09-25T11:06:02.947Z,95060
2022-09-25T11:07:11.613Z,95064
2022-09-25T11:08:21.404Z,95065
2022-09-25T11:09:31.073Z,95064
2022-09-25T11:10:38.766Z,95062
2022-09-25T11:11:48.582Z,95062
2022-09-25T11:12:58.300Z,95058
2022-09-25T11:14:07.951Z,95056
2022-09-25T11:15:16.609Z,95052
2022-09-25T11:16:26.328Z,95051
2022-09-25T11:17:35.997Z,95048
2022-09-25T11:18:45.701Z,95049
2022-09-25T11:19:54.397Z,95053
2022-09-25T11:21:04.074Z,95045
2022-09-25T11:22:13.751Z,95051
2022-09-25T11:23:22.451Z,95045
2022-09-25T11:24:31.167Z,95049
2022-09-25T11:25:40.885Z,95044
2022-09-25T11:26:50.565Z,95049
2022-09-25T11:28:00.371Z,95047
2022-09-25T11:29:08.992Z,95045
2022-09-25T11:30:18.694Z,95041
2022-09-25T11:31:28.370Z,95044
2022-09-25T11:32:37.052Z,95036
2022-09-25T11:33:46.722Z,95033
2022-09-25T11:34:56.457Z,95038
2022-09-25T11:36:06.119Z,95034
2022-09-25T11:37:15.812Z,95032
2022-09-25T11:38:24.474Z,95033
2022-09-25T11:39:34.137Z,95031
2022-09-25T11:40:43.866Z,95034
2022-09-25T11:41:53.537Z,95033
2022-09-25T11:43:03.285Z,95027
2022-09-25T11:44:12.969Z,95029
2022-09-25T11:45:22.639Z,95022
2022-09-25T11:46:32.505Z,95024
2022-09-25T11:47:41.082Z,95024
2022-09-25T11:48:49.769Z,95021
2022-09-25T11:49:59.436Z,95020
2022-09-25T11:51:09.100Z,95021
2022-09-25T11:52:18.853Z,95020
2022-09-25T11:53:27.526Z,95019
2022-09-25T11:54:36.685Z,95022
2022-09-25T11:55:45.858Z,95023
2022-09-25T11:56:54.532Z,95026
2022-09-25T11:58:04.265Z,95022
2022-09-25T11:59:13.958Z,95023
2022-09-25T12:00:22.628Z,95024
2022-09-25T12:01:31.427Z,95021
2022-09-25T12:02:41.136Z,95026
2022-09-25T12:03:49.758Z,95017
2022-09-25T12:04:59.425Z,95017
2022-09-25T12:06:08.097Z,95018
2022-09-25T12:07:16.769Z,95012
2022-09-25T12:08:26.448Z,95008
2022-09-25T12:09:34.181Z,95010
2022-09-25T12:10:44.114Z,95009
2022-09-25T12:11:52.640Z,95006
2022-09-25T12:13:01.311Z,95006
2022-09-25T12:14:11.039Z,95003
2022-09-25T12:15:19.724Z,95004
2022-09-25T12:16:29.496Z,95005
2022-09-25T12:17:39.273Z,94999
2022-09-25T12:18:46.998Z,95002
2022-09-25T12:19:56.756Z,95004
2022-09-25T12:21:05.496Z,95004
2022-09-25T12:22:15.177Z,95003
2022-09-25T12:23:24.911Z,95004
2022-09-25T12:24:33.628Z,95001
2022-09-25T12:25:42.350Z,95002
2022-09-25T12:26:52.137Z,95002
2022-09-25T12:27:59.804Z,95003
2022-09-25T12:29:08.674Z,95002
2022-09-25T12:30:18.369Z,94998
2022-09-25T12:31:28.204Z,94996
2022-09-25T12:32:37.855Z,94997
2022-09-25T12:33:45.517Z,94995
2022-09-25T12:34:53.212Z,94998
2022-09-25T12:36:03.024Z,94995
2022-09-25T12:37:11.684Z,94999
2022-09-25T12:38:21.398Z,94995
2022-09-25T12:39:31.192Z,94992
2022-09-25T12:40:38.974Z,94993
2022-09-25T12:41:48.618Z,94989
2022-09-25T12:42:58.285Z,94988
2022-09-25T12:44:08.072Z,94985
2022-09-25T12:45:16.742Z,94990
2022-09-25T12:46:26.515Z,94989
2022-09-25T12:47:35.213Z,94991
2022-09-25T12:48:43.817Z,94989
2022-09-25T12:49:52.541Z,94994
2022-09-25T12:51:05.281Z,94998
2022-09-25T12:52:11.877Z,94994
2022-09-25T12:53:20.561Z,94997
2022-09-25T12:54:29.249Z,94993
2022-09-25T12:55:37.962Z,94992
2022-09-25T12:56:47.643Z,94988
2022-09-25T12:57:57.344Z,94990
2022-09-25T12:59:06.029Z,94986
2022-09-25T13:00:14.703Z,94988
2022-09-25T13:01:24.571Z,94989
2022-09-25T13:02:34.250Z,94984
2022-09-25T13:03:42.867Z,94987
2022-09-25T13:04:52.527Z,94983
2022-09-25T13:06:02.209Z,94984
2022-09-25T13:07:11.958Z,94983
2022-09-25T13:08:20.620Z,94984
2022-09-25T13:09:30.322Z,94980
2022-09-25T13:10:40.026Z,94978
2022-09-25T13:11:47.732Z,94979
2022-09-25T13:12:56.458Z,94986
2022-09-25T13:14:05.165Z,94979
2022-09-25T13:15:14.792Z,94983
2022-09-25T13:16:24.491Z,94984
2022-09-25T13:17:34.142Z,94981
2022-09-25T13:18:43.849Z,94982
2022-09-25T13:19:52.632Z,94977
2022-09-25T13:21:01.223Z,94976
2022-09-25T13:22:09.881Z,94975
2022-09-25T13:23:18.595Z,94975
2022-09-25T13:24:28.321Z,94973
2022-09-25T13:25:37.999Z,94979
2022-09-25T13:26:45.739Z,94977
2022-09-25T13:27:55.414Z,94976
2022-09-25T13:29:05.208Z,94979
2022-09-25T13:30:14.978Z,94975
2022-09-25T13:31:23.712Z,94978
2022-09-25T13:32:33.634Z,94977
2022-09-25T13:33:42.310Z,94979
2022-09-25T13:34:51.986Z,94982
2022-09-25T13:35:59.754Z,94983
2022-09-25T13:37:08.406Z,94983
2022-09-25T13:38:18.081Z,94985
2022-09-25T13:39:25.733Z,94982
2022-09-25T13:40:34.476Z,94980
2022-09-25T13:41:43.118Z,94980
2022-09-25T13:42:51.799Z,94981
2022-09-25T13:44:01.507Z,94984
2022-09-25T13:45:09.216Z,94984
2022-09-25T13:46:18.927Z,94993
2022-09-25T13:47:28.613Z,94993
2022-09-25T13:48:36.304Z,94993
2022-09-25T13:49:45.986Z,94995
2022-09-25T13:50:54.668Z,94993
2022-09-25T13:52:03.396Z,94993
2022-09-25T13:53:13.095Z,94992
2022-09-25T13:54:20.773Z,94988
2022-09-25T13:55:30.469Z,94987
2022-09-25T13:56:40.172Z,94986
2022-09-25T13:57:48.845Z,94986
2022-09-25T13:58:57.647Z,94985
2022-09-25T14:00:06.432Z,94983
2022-09-25T14:01:16.171Z,94984
2022-09-25T14:02:25.840Z,94985
2022-09-25T14:03:34.476Z,94988
2022-09-25T14:04:43.142Z,94993
2022-09-25T14:05:51.822Z,94996
2022-09-25T14:07:00.530Z,95002
2022-09-25T14:08:09.244Z,95001
2022-09-25T14:09:18.920Z,95006
2022-09-25T14:10:28.729Z,95003
2022-09-25T14:11:38.439Z,95006
2022-09-25T14:12:47.104Z,95004
2022-09-25T14:13:55.833Z,95008
2022-09-25T14:15:05.511Z,95002
2022-09-25T14:16:13.323Z,95001
2022-09-25T14:17:21.934Z,95002
2022-09-25T14:18:31.600Z,94995
2022-09-25T14:19:40.277Z,94989
2022-09-25T14:20:49.966Z,94991
2022-09-25T14:21:59.747Z,94986
2022-09-25T14:23:08.436Z,94981
2022-09-25T14:24:18.149Z,94983
2022-09-25T14:25:26.823Z,94981
2022-09-25T14:26:35.489Z,94984
2022-09-25T14:27:44.223Z,94981
2022-09-25T14:28:52.901Z,94981
2022-09-25T14:30:02.577Z,94986
2022-09-25T14:31:10.400Z,94986
2022-09-25T14:32:43.145Z,94986
2022-09-25T14:33:28.677Z,94985
2022-09-25T14:34:38.357Z,94984
2022-09-25T14:35:47.007Z,94979
2022-09-25T14:36:56.678Z,94983
2022-09-25T14:38:05.352Z,94977
2022-09-25T14:39:14.182Z,94977
2022-09-25T14:40:23.882Z,94982
2022-09-25T14:41:31.466Z,94979
2022-09-25T14:42:41.159Z,94979
2022-09-25T14:43:50.860Z,94978
2022-09-25T14:45:00.527Z,94980
2022-09-25T14:46:11.804Z,94985
2022-09-25T14:47:19.861Z,94986
2022-09-25T14:48:28.616Z,94983
2022-09-25T14:49:38.315Z,94983
2022-09-25T14:50:45.997Z,94983